This is the latest recevied weather packets stored in our database for station/object PY5AL-13. If no packets are shown the sender has not sent any weather packets the latest 10 day(s).
| Time | Temp. | Humidity | Pressure | Rain* | Wind** | Luminosity | Snow |
|---|---|---|---|---|---|---|---|
| 1777998863 | 27.22° C | 60% | 1020 hPa | - | - | - | - |
| 1777997663 | 26.67° C | 61% | 1020.2 hPa | - | - | - | - |
| 1777996463 | 26.11° C | 63% | 1020.5 hPa | - | - | - | - |
| 1777995263 | 25.56° C | 65% | 1020.8 hPa | - | - | - | - |
| 1777994063 | 25° C | 67% | 1021.1 hPa | - | - | - | - |
| 1777992863 | 25° C | 67% | 1021.4 hPa | - | - | - | - |
| 1777991663 | 24.44° C | 68% | 1021.6 hPa | - | - | - | - |
| 1777990463 | 24.44° C | 69% | 1021.7 hPa | - | - | - | - |
| 1777989264 | 23.89° C | 72% | 1021.7 hPa | - | - | - | - |
| 1777988064 | 23.89° C | 73% | 1021.8 hPa | - | - | - | - |
| 1777986863 | 23.33° C | 74% | 1021.8 hPa | - | - | - | - |
| 1777985664 | 23.33° C | 74% | 1021.8 hPa | - | - | - | - |
| 1777984464 | 23.33° C | 73% | 1021.7 hPa | - | - | - | - |
| 1777983264 | 23.33° C | 70% | 1021.5 hPa | - | - | - | - |
| 1777982064 | 23.89° C | 68% | 1021.3 hPa | - | - | - | - |
| 1777980864 | 23.33° C | 68% | 1021.1 hPa | - | - | - | - |
| 1777979664 | 23.33° C | 67% | 1021.1 hPa | - | - | - | - |
| 1777978464 | 22.78° C | 67% | 1020.7 hPa | - | - | - | - |
| 1777977264 | 22.78° C | 66% | 1020.6 hPa | - | - | - | - |
| 1777976064 | 22.78° C | 66% | 1020.5 hPa | - | - | - | - |
| 1777974864 | 22.78° C | 66% | 1020.2 hPa | - | - | - | - |
| 1777973664 | 22.78° C | 65% | 1020 hPa | - | - | - | - |
| 1777972464 | 22.78° C | 66% | 1019.8 hPa | - | - | - | - |
| 1777971265 | 22.78° C | 66% | 1019.5 hPa | - | - | - | - |
| 1777970064 | 23.33° C | 65% | 1019.3 hPa | - | - | - | - |
* Rain since midnight (hover to see other rain measurements)
** Current wind speed in m/s (hover to see current wind gust speed)